sensor_id;sensor_type;location;lat;lon;timestamp;P1;durP1;ratioP1;P2;durP2;ratioP2
22060;SDS011;11194;48.092;-1.382;2023-03-14T00:01:27;4.60;;;1.52;;
22060;SDS011;11194;48.092;-1.382;2023-03-14T00:03:56;6.70;;;1.92;;
22060;SDS011;11194;48.092;-1.382;2023-03-14T00:06:22;6.47;;;1.65;;
22060;SDS011;11194;48.092;-1.382;2023-03-14T00:08:48;4.03;;;1.20;;
22060;SDS011;11194;48.092;-1.382;2023-03-14T00:11:18;5.07;;;1.65;;
22060;SDS011;11194;48.092;-1.382;2023-03-14T00:13:48;2.95;;;1.10;;
22060;SDS011;11194;48.092;-1.382;2023-03-14T00:16:14;3.60;;;1.48;;
22060;SDS011;11194;48.092;-1.382;2023-03-14T00:18:40;2.83;;;1.35;;
22060;SDS011;11194;48.092;-1.382;2023-03-14T00:21:07;2.85;;;1.40;;
22060;SDS011;11194;48.092;-1.382;2023-03-14T00:23:34;4.65;;;1.58;;
22060;SDS011;11194;48.092;-1.382;2023-03-14T00:26:00;6.35;;;1.90;;
22060;SDS011;11194;48.092;-1.382;2023-03-14T00:28:27;7.70;;;1.80;;
22060;SDS011;11194;48.092;-1.382;2023-03-14T00:30:53;4.78;;;1.77;;
22060;SDS011;11194;48.092;-1.382;2023-03-14T00:33:19;7.00;;;1.63;;
22060;SDS011;11194;48.092;-1.382;2023-03-14T00:35:52;4.75;;;1.70;;
22060;SDS011;11194;48.092;-1.382;2023-03-14T00:38:18;6.70;;;1.60;;
22060;SDS011;11194;48.092;-1.382;2023-03-14T00:40:44;4.32;;;1.90;;
22060;SDS011;11194;48.092;-1.382;2023-03-14T00:43:11;2.05;;;1.48;;
22060;SDS011;11194;48.092;-1.382;2023-03-14T00:45:37;6.97;;;1.75;;
22060;SDS011;11194;48.092;-1.382;2023-03-14T00:48:03;4.90;;;1.88;;
22060;SDS011;11194;48.092;-1.382;2023-03-14T00:50:29;4.60;;;1.80;;
22060;SDS011;11194;48.092;-1.382;2023-03-14T00:52:55;3.80;;;1.83;;
22060;SDS011;11194;48.092;-1.382;2023-03-14T00:55:22;5.38;;;1.60;;
22060;SDS011;11194;48.092;-1.382;2023-03-14T00:57:48;3.00;;;1.45;;
22060;SDS011;11194;48.092;-1.382;2023-03-14T01:00:17;6.78;;;1.60;;
22060;SDS011;11194;48.092;-1.382;2023-03-14T01:02:43;3.92;;;1.55;;
22060;SDS011;11194;48.092;-1.382;2023-03-14T01:05:12;3.45;;;1.50;;
22060;SDS011;11194;48.092;-1.382;2023-03-14T01:07:38;3.50;;;1.50;;
22060;SDS011;11194;48.092;-1.382;2023-03-14T01:10:04;1.70;;;1.38;;
22060;SDS011;11194;48.092;-1.382;2023-03-14T01:12:31;3.13;;;1.30;;
22060;SDS011;11194;48.092;-1.382;2023-03-14T01:14:57;4.00;;;1.10;;
22060;SDS011;11194;48.092;-1.382;2023-03-14T01:17:23;3.65;;;1.35;;
22060;SDS011;11194;48.092;-1.382;2023-03-14T01:19:50;1.02;;;0.85;;
22060;SDS011;11194;48.092;-1.382;2023-03-14T01:22:16;1.83;;;1.20;;
22060;SDS011;11194;48.092;-1.382;2023-03-14T01:24:42;3.58;;;1.20;;
22060;SDS011;11194;48.092;-1.382;2023-03-14T01:27:08;1.75;;;1.08;;
22060;SDS011;11194;48.092;-1.382;2023-03-14T01:29:34;2.53;;;1.20;;
22060;SDS011;11194;48.092;-1.382;2023-03-14T01:32:00;2.92;;;1.60;;
22060;SDS011;11194;48.092;-1.382;2023-03-14T01:34:26;2.65;;;1.40;;
22060;SDS011;11194;48.092;-1.382;2023-03-14T01:36:52;2.78;;;1.27;;
22060;SDS011;11194;48.092;-1.382;2023-03-14T01:39:18;4.57;;;1.70;;
22060;SDS011;11194;48.092;-1.382;2023-03-14T01:41:44;5.65;;;2.10;;
22060;SDS011;11194;48.092;-1.382;2023-03-14T01:44:11;6.72;;;1.77;;
22060;SDS011;11194;48.092;-1.382;2023-03-14T01:46:42;3.30;;;1.45;;
22060;SDS011;11194;48.092;-1.382;2023-03-14T01:54:12;6.90;;;2.00;;
22060;SDS011;11194;48.092;-1.382;2023-03-14T01:56:40;11.13;;;2.20;;
22060;SDS011;11194;48.092;-1.382;2023-03-14T01:59:08;4.03;;;1.67;;
22060;SDS011;11194;48.092;-1.382;2023-03-14T02:01:36;5.53;;;2.05;;
22060;SDS011;11194;48.092;-1.382;2023-03-14T02:04:05;7.07;;;2.45;;
22060;SDS011;11194;48.092;-1.382;2023-03-14T02:06:35;8.88;;;2.33;;
22060;SDS011;11194;48.092;-1.382;2023-03-14T02:09:03;9.52;;;2.70;;
22060;SDS011;11194;48.092;-1.382;2023-03-14T02:11:29;7.90;;;2.60;;
22060;SDS011;11194;48.092;-1.382;2023-03-14T02:13:56;9.75;;;2.90;;
22060;SDS011;11194;48.092;-1.382;2023-03-14T02:16:23;6.78;;;2.63;;
22060;SDS011;11194;48.092;-1.382;2023-03-14T02:18:49;5.20;;;1.92;;
22060;SDS011;11194;48.092;-1.382;2023-03-14T02:26:40;10.52;;;2.78;;
22060;SDS011;11194;48.092;-1.382;2023-03-14T02:29:08;10.00;;;3.30;;
22060;SDS011;11194;48.092;-1.382;2023-03-14T05:00:55;11.52;;;2.85;;
22060;SDS011;11194;48.092;-1.382;2023-03-14T05:03:21;12.52;;;3.08;;
22060;SDS011;11194;48.092;-1.382;2023-03-14T05:05:47;11.48;;;3.20;;
22060;SDS011;11194;48.092;-1.382;2023-03-14T05:08:13;9.57;;;2.17;;
22060;SDS011;11194;48.092;-1.382;2023-03-14T05:10:39;5.35;;;2.10;;
22060;SDS011;11194;48.092;-1.382;2023-03-14T05:13:05;8.23;;;2.35;;
22060;SDS011;11194;48.092;-1.382;2023-03-14T05:15:31;5.75;;;2.33;;
22060;SDS011;11194;48.092;-1.382;2023-03-14T05:17:57;5.70;;;2.28;;
22060;SDS011;11194;48.092;-1.382;2023-03-14T05:20:23;9.88;;;2.42;;
22060;SDS011;11194;48.092;-1.382;2023-03-14T05:22:49;6.63;;;2.53;;
22060;SDS011;11194;48.092;-1.382;2023-03-14T05:25:15;8.65;;;2.30;;
22060;SDS011;11194;48.092;-1.382;2023-03-14T05:27:41;16.85;;;2.95;;
22060;SDS011;11194;48.092;-1.382;2023-03-14T05:30:07;9.05;;;2.25;;
22060;SDS011;11194;48.092;-1.382;2023-03-14T05:32:34;7.50;;;2.08;;
22060;SDS011;11194;48.092;-1.382;2023-03-14T05:35:00;7.53;;;2.40;;
22060;SDS011;11194;48.092;-1.382;2023-03-14T05:37:26;9.65;;;2.30;;
22060;SDS011;11194;48.092;-1.382;2023-03-14T05:39:52;11.02;;;2.75;;
22060;SDS011;11194;48.092;-1.382;2023-03-14T05:42:18;11.35;;;2.80;;
22060;SDS011;11194;48.092;-1.382;2023-03-14T05:44:44;8.63;;;2.20;;
22060;SDS011;11194;48.092;-1.382;2023-03-14T05:47:10;8.82;;;2.30;;
22060;SDS011;11194;48.092;-1.382;2023-03-14T05:49:36;7.82;;;1.75;;
22060;SDS011;11194;48.092;-1.382;2023-03-14T05:52:02;9.45;;;2.60;;
22060;SDS011;11194;48.092;-1.382;2023-03-14T05:54:28;8.15;;;2.58;;
22060;SDS011;11194;48.092;-1.382;2023-03-14T05:56:54;11.35;;;2.95;;
22060;SDS011;11194;48.092;-1.382;2023-03-14T05:59:20;9.73;;;2.65;;
22060;SDS011;11194;48.092;-1.382;2023-03-14T06:01:46;10.13;;;2.42;;
22060;SDS011;11194;48.092;-1.382;2023-03-14T06:04:12;14.68;;;2.65;;
22060;SDS011;11194;48.092;-1.382;2023-03-14T06:06:39;9.82;;;2.45;;
22060;SDS011;11194;48.092;-1.382;2023-03-14T06:09:05;8.55;;;2.60;;
22060;SDS011;11194;48.092;-1.382;2023-03-14T06:11:31;13.30;;;2.78;;
22060;SDS011;11194;48.092;-1.382;2023-03-14T06:13:57;11.98;;;2.17;;
22060;SDS011;11194;48.092;-1.382;2023-03-14T06:16:23;9.15;;;2.63;;
22060;SDS011;11194;48.092;-1.382;2023-03-14T06:18:49;10.93;;;2.78;;
22060;SDS011;11194;48.092;-1.382;2023-03-14T06:21:16;6.00;;;2.33;;
22060;SDS011;11194;48.092;-1.382;2023-03-14T06:23:42;6.97;;;2.28;;
22060;SDS011;11194;48.092;-1.382;2023-03-14T06:26:08;12.30;;;2.83;;
22060;SDS011;11194;48.092;-1.382;2023-03-14T06:28:34;9.43;;;2.80;;
22060;SDS011;11194;48.092;-1.382;2023-03-14T06:31:00;13.25;;;3.03;;
22060;SDS011;11194;48.092;-1.382;2023-03-14T06:33:26;7.63;;;2.75;;
22060;SDS011;11194;48.092;-1.382;2023-03-14T06:35:52;13.13;;;2.65;;
22060;SDS011;11194;48.092;-1.382;2023-03-14T06:38:18;10.98;;;2.70;;
22060;SDS011;11194;48.092;-1.382;2023-03-14T06:40:44;14.25;;;2.70;;
22060;SDS011;11194;48.092;-1.382;2023-03-14T06:43:10;9.63;;;2.72;;
22060;SDS011;11194;48.092;-1.382;2023-03-14T06:45:36;12.77;;;2.53;;
22060;SDS011;11194;48.092;-1.382;2023-03-14T06:48:02;7.75;;;1.95;;
22060;SDS011;11194;48.092;-1.382;2023-03-14T06:50:29;6.45;;;1.92;;
22060;SDS011;11194;48.092;-1.382;2023-03-14T06:52:55;10.90;;;2.83;;
22060;SDS011;11194;48.092;-1.382;2023-03-14T06:55:21;7.82;;;2.65;;
22060;SDS011;11194;48.092;-1.382;2023-03-14T06:57:47;7.93;;;2.00;;
22060;SDS011;11194;48.092;-1.382;2023-03-14T07:00:13;9.07;;;1.88;;
22060;SDS011;11194;48.092;-1.382;2023-03-14T07:02:39;8.38;;;2.20;;
22060;SDS011;11194;48.092;-1.382;2023-03-14T07:05:06;12.60;;;2.35;;
22060;SDS011;11194;48.092;-1.382;2023-03-14T07:07:32;10.57;;;4.32;;
22060;SDS011;11194;48.092;-1.382;2023-03-14T07:09:58;9.57;;;2.38;;
22060;SDS011;11194;48.092;-1.382;2023-03-14T07:12:24;5.57;;;2.03;;
22060;SDS011;11194;48.092;-1.382;2023-03-14T07:14:50;8.55;;;1.90;;
22060;SDS011;11194;48.092;-1.382;2023-03-14T07:17:16;11.65;;;1.95;;
22060;SDS011;11194;48.092;-1.382;2023-03-14T07:19:42;12.23;;;2.17;;
22060;SDS011;11194;48.092;-1.382;2023-03-14T07:22:08;5.85;;;1.70;;
22060;SDS011;11194;48.092;-1.382;2023-03-14T07:24:34;9.50;;;1.75;;
22060;SDS011;11194;48.092;-1.382;2023-03-14T07:27:00;6.15;;;1.45;;
22060;SDS011;11194;48.092;-1.382;2023-03-14T07:29:26;6.70;;;1.40;;
22060;SDS011;11194;48.092;-1.382;2023-03-14T07:31:52;5.40;;;1.55;;
22060;SDS011;11194;48.092;-1.382;2023-03-14T07:34:18;9.63;;;2.30;;
22060;SDS011;11194;48.092;-1.382;2023-03-14T07:36:44;10.25;;;1.90;;
22060;SDS011;11194;48.092;-1.382;2023-03-14T07:39:10;8.10;;;1.83;;
22060;SDS011;11194;48.092;-1.382;2023-03-14T07:41:36;10.70;;;2.13;;
22060;SDS011;11194;48.092;-1.382;2023-03-14T07:44:02;9.23;;;1.90;;
22060;SDS011;11194;48.092;-1.382;2023-03-14T07:46:29;12.52;;;2.80;;
22060;SDS011;11194;48.092;-1.382;2023-03-14T07:48:55;6.82;;;1.98;;
22060;SDS011;11194;48.092;-1.382;2023-03-14T07:51:21;9.85;;;2.20;;
22060;SDS011;11194;48.092;-1.382;2023-03-14T07:53:47;14.73;;;2.78;;
22060;SDS011;11194;48.092;-1.382;2023-03-14T07:56:13;8.60;;;1.70;;
22060;SDS011;11194;48.092;-1.382;2023-03-14T07:58:39;3.90;;;1.80;;
22060;SDS011;11194;48.092;-1.382;2023-03-14T08:01:05;9.85;;;2.03;;
22060;SDS011;11194;48.092;-1.382;2023-03-14T08:03:31;10.60;;;2.17;;
22060;SDS011;11194;48.092;-1.382;2023-03-14T08:05:57;7.55;;;2.17;;
22060;SDS011;11194;48.092;-1.382;2023-03-14T08:08:23;5.25;;;1.85;;
22060;SDS011;11194;48.092;-1.382;2023-03-14T08:10:49;9.90;;;2.10;;
22060;SDS011;11194;48.092;-1.382;2023-03-14T08:13:15;6.85;;;1.65;;
22060;SDS011;11194;48.092;-1.382;2023-03-14T08:15:41;9.00;;;2.50;;
22060;SDS011;11194;48.092;-1.382;2023-03-14T08:18:07;3.47;;;1.63;;
22060;SDS011;11194;48.092;-1.382;2023-03-14T08:20:33;6.72;;;1.60;;
22060;SDS011;11194;48.092;-1.382;2023-03-14T08:23:00;3.78;;;1.35;;
22060;SDS011;11194;48.092;-1.382;2023-03-14T08:25:27;6.80;;;1.98;;
22060;SDS011;11194;48.092;-1.382;2023-03-14T08:27:53;7.15;;;1.80;;
22060;SDS011;11194;48.092;-1.382;2023-03-14T08:30:20;8.27;;;1.80;;
22060;SDS011;11194;48.092;-1.382;2023-03-14T08:32:46;8.88;;;1.95;;
22060;SDS011;11194;48.092;-1.382;2023-03-14T08:35:13;7.78;;;2.08;;
22060;SDS011;11194;48.092;-1.382;2023-03-14T08:37:39;5.63;;;1.75;;
22060;SDS011;11194;48.092;-1.382;2023-03-14T08:40:06;9.88;;;1.98;;
22060;SDS011;11194;48.092;-1.382;2023-03-14T08:42:33;7.30;;;1.92;;
22060;SDS011;11194;48.092;-1.382;2023-03-14T08:44:59;5.88;;;1.40;;
22060;SDS011;11194;48.092;-1.382;2023-03-14T08:47:25;3.90;;;1.20;;
22060;SDS011;11194;48.092;-1.382;2023-03-14T08:49:51;4.00;;;1.63;;
22060;SDS011;11194;48.092;-1.382;2023-03-14T08:52:17;4.28;;;1.63;;
22060;SDS011;11194;48.092;-1.382;2023-03-14T08:54:43;4.10;;;1.40;;
22060;SDS011;11194;48.092;-1.382;2023-03-14T08:57:10;4.28;;;1.50;;
22060;SDS011;11194;48.092;-1.382;2023-03-14T08:59:36;7.43;;;1.80;;
22060;SDS011;11194;48.092;-1.382;2023-03-14T09:02:02;8.27;;;2.08;;
22060;SDS011;11194;48.092;-1.382;2023-03-14T09:04:29;5.13;;;1.55;;
22060;SDS011;11194;48.092;-1.382;2023-03-14T09:06:55;7.32;;;1.90;;
22060;SDS011;11194;48.092;-1.382;2023-03-14T09:09:23;7.60;;;1.67;;
22060;SDS011;11194;48.092;-1.382;2023-03-14T09:11:49;5.65;;;1.40;;
22060;SDS011;11194;48.092;-1.382;2023-03-14T09:14:15;6.72;;;1.45;;
22060;SDS011;11194;48.092;-1.382;2023-03-14T09:16:41;6.95;;;1.63;;
22060;SDS011;11194;48.092;-1.382;2023-03-14T09:19:07;12.45;;;2.10;;
22060;SDS011;11194;48.092;-1.382;2023-03-14T09:21:33;5.93;;;1.65;;
22060;SDS011;11194;48.092;-1.382;2023-03-14T09:23:59;5.45;;;1.52;;
22060;SDS011;11194;48.092;-1.382;2023-03-14T09:26:25;8.07;;;1.42;;
22060;SDS011;11194;48.092;-1.382;2023-03-14T09:28:51;9.20;;;1.55;;
22060;SDS011;11194;48.092;-1.382;2023-03-14T09:31:17;9.95;;;1.75;;
22060;SDS011;11194;48.092;-1.382;2023-03-14T09:33:43;4.43;;;1.33;;
22060;SDS011;11194;48.092;-1.382;2023-03-14T09:36:09;8.95;;;1.65;;
22060;SDS011;11194;48.092;-1.382;2023-03-14T09:38:36;5.22;;;1.40;;
22060;SDS011;11194;48.092;-1.382;2023-03-14T09:41:02;8.80;;;2.13;;
22060;SDS011;11194;48.092;-1.382;2023-03-14T09:43:29;5.28;;;1.58;;
22060;SDS011;11194;48.092;-1.382;2023-03-14T09:45:57;7.45;;;2.40;;
22060;SDS011;11194;48.092;-1.382;2023-03-14T09:48:29;5.85;;;1.55;;
22060;SDS011;11194;48.092;-1.382;2023-03-14T09:50:56;6.60;;;1.90;;
22060;SDS011;11194;48.092;-1.382;2023-03-14T09:53:24;4.78;;;1.25;;
22060;SDS011;11194;48.092;-1.382;2023-03-14T09:55:52;9.98;;;1.98;;
22060;SDS011;11194;48.092;-1.382;2023-03-14T09:58:20;7.72;;;1.70;;
22060;SDS011;11194;48.092;-1.382;2023-03-14T10:00:47;5.28;;;1.55;;
22060;SDS011;11194;48.092;-1.382;2023-03-14T10:03:24;8.82;;;1.83;;
22060;SDS011;11194;48.092;-1.382;2023-03-14T10:05:51;4.97;;;1.40;;
22060;SDS011;11194;48.092;-1.382;2023-03-14T10:08:17;8.38;;;1.98;;
22060;SDS011;11194;48.092;-1.382;2023-03-14T10:10:43;7.60;;;1.70;;
22060;SDS011;11194;48.092;-1.382;2023-03-14T10:13:20;5.55;;;1.45;;
22060;SDS011;11194;48.092;-1.382;2023-03-14T10:18:18;9.40;;;1.65;;
22060;SDS011;11194;48.092;-1.382;2023-03-14T10:20:45;5.40;;;1.77;;
22060;SDS011;11194;48.092;-1.382;2023-03-14T10:25:41;4.43;;;1.33;;
22060;SDS011;11194;48.092;-1.382;2023-03-14T10:28:11;6.50;;;1.40;;
22060;SDS011;11194;48.092;-1.382;2023-03-14T10:30:48;5.43;;;1.77;;
22060;SDS011;11194;48.092;-1.382;2023-03-14T10:35:40;6.75;;;1.70;;
22060;SDS011;11194;48.092;-1.382;2023-03-14T10:38:10;8.10;;;1.60;;
22060;SDS011;11194;48.092;-1.382;2023-03-14T10:40:38;4.03;;;1.30;;
22060;SDS011;11194;48.092;-1.382;2023-03-14T10:43:05;9.10;;;1.63;;
22060;SDS011;11194;48.092;-1.382;2023-03-14T10:45:36;4.57;;;1.30;;
22060;SDS011;11194;48.092;-1.382;2023-03-14T10:48:22;7.13;;;2.13;;
22060;SDS011;11194;48.092;-1.382;2023-03-14T10:53:44;4.93;;;1.45;;
22060;SDS011;11194;48.092;-1.382;2023-03-14T10:56:14;10.93;;;1.80;;
22060;SDS011;11194;48.092;-1.382;2023-03-14T10:58:41;4.90;;;1.25;;
22060;SDS011;11194;48.092;-1.382;2023-03-14T11:03:55;4.93;;;1.20;;
22060;SDS011;11194;48.092;-1.382;2023-03-14T11:06:41;6.53;;;1.40;;
22060;SDS011;11194;48.092;-1.382;2023-03-14T11:11:37;6.22;;;1.50;;
22060;SDS011;11194;48.092;-1.382;2023-03-14T11:21:53;5.00;;;1.33;;
22060;SDS011;11194;48.092;-1.382;2023-03-14T11:31:43;4.72;;;1.23;;
22060;SDS011;11194;48.092;-1.382;2023-03-14T11:34:15;4.88;;;1.95;;
22060;SDS011;11194;48.092;-1.382;2023-03-14T11:36:44;6.15;;;1.42;;
22060;SDS011;11194;48.092;-1.382;2023-03-14T11:39:13;6.28;;;1.55;;
22060;SDS011;11194;48.092;-1.382;2023-03-14T11:41:41;6.30;;;1.48;;
22060;SDS011;11194;48.092;-1.382;2023-03-14T11:44:10;5.57;;;1.42;;
22060;SDS011;11194;48.092;-1.382;2023-03-14T11:46:39;6.75;;;1.42;;
22060;SDS011;11194;48.092;-1.382;2023-03-14T11:51:43;8.73;;;1.48;;
22060;SDS011;11194;48.092;-1.382;2023-03-14T11:54:22;5.93;;;1.58;;
22060;SDS011;11194;48.092;-1.382;2023-03-14T11:56:58;9.27;;;1.70;;
22060;SDS011;11194;48.092;-1.382;2023-03-14T12:02:13;7.88;;;1.67;;
22060;SDS011;11194;48.092;-1.382;2023-03-14T12:07:19;6.60;;;1.67;;
22060;SDS011;11194;48.092;-1.382;2023-03-14T12:09:46;5.07;;;1.58;;
22060;SDS011;11194;48.092;-1.382;2023-03-14T12:12:14;6.28;;;1.60;;
22060;SDS011;11194;48.092;-1.382;2023-03-14T12:14:46;13.38;;;2.47;;
22060;SDS011;11194;48.092;-1.382;2023-03-14T12:19:47;3.80;;;1.63;;
22060;SDS011;11194;48.092;-1.382;2023-03-14T12:24:47;8.13;;;1.55;;
22060;SDS011;11194;48.092;-1.382;2023-03-14T12:30:00;7.03;;;1.80;;
22060;SDS011;11194;48.092;-1.382;2023-03-14T12:32:26;6.05;;;1.95;;
22060;SDS011;11194;48.092;-1.382;2023-03-14T12:34:52;5.50;;;1.80;;
22060;SDS011;11194;48.092;-1.382;2023-03-14T12:37:21;4.20;;;1.42;;
22060;SDS011;11194;48.092;-1.382;2023-03-14T12:45:24;6.93;;;1.73;;
22060;SDS011;11194;48.092;-1.382;2023-03-14T12:50:19;5.85;;;1.70;;
22060;SDS011;11194;48.092;-1.382;2023-03-14T12:52:52;5.75;;;1.85;;
22060;SDS011;11194;48.092;-1.382;2023-03-14T12:55:29;6.53;;;1.50;;
22060;SDS011;11194;48.092;-1.382;2023-03-14T13:01:01;5.60;;;1.20;;
22060;SDS011;11194;48.092;-1.382;2023-03-14T13:03:43;6.68;;;1.30;;
22060;SDS011;11194;48.092;-1.382;2023-03-14T13:06:10;4.32;;;1.35;;
22060;SDS011;11194;48.092;-1.382;2023-03-14T13:08:38;5.05;;;1.42;;
22060;SDS011;11194;48.092;-1.382;2023-03-14T13:11:20;4.78;;;1.40;;
22060;SDS011;11194;48.092;-1.382;2023-03-14T13:13:56;7.65;;;1.50;;
22060;SDS011;11194;48.092;-1.382;2023-03-14T13:16:22;6.55;;;1.52;;
22060;SDS011;11194;48.092;-1.382;2023-03-14T13:18:49;5.78;;;1.58;;
22060;SDS011;11194;48.092;-1.382;2023-03-14T13:21:22;7.70;;;1.67;;
22060;SDS011;11194;48.092;-1.382;2023-03-14T13:24:00;8.07;;;1.55;;
22060;SDS011;11194;48.092;-1.382;2023-03-14T13:26:36;5.57;;;1.10;;
22060;SDS011;11194;48.092;-1.382;2023-03-14T13:29:11;4.65;;;1.40;;
22060;SDS011;11194;48.092;-1.382;2023-03-14T13:31:43;7.28;;;2.05;;
22060;SDS011;11194;48.092;-1.382;2023-03-14T13:34:09;5.00;;;1.60;;
22060;SDS011;11194;48.092;-1.382;2023-03-14T13:36:36;6.57;;;1.65;;
22060;SDS011;11194;48.092;-1.382;2023-03-14T13:39:02;6.97;;;1.45;;
22060;SDS011;11194;48.092;-1.382;2023-03-14T13:41:30;6.57;;;1.42;;
22060;SDS011;11194;48.092;-1.382;2023-03-14T13:44:06;10.68;;;2.08;;
22060;SDS011;11194;48.092;-1.382;2023-03-14T13:46:33;8.18;;;2.00;;
22060;SDS011;11194;48.092;-1.382;2023-03-14T13:49:03;5.22;;;1.50;;
22060;SDS011;11194;48.092;-1.382;2023-03-14T13:51:30;11.68;;;2.10;;
22060;SDS011;11194;48.092;-1.382;2023-03-14T13:53:59;11.38;;;2.30;;
22060;SDS011;11194;48.092;-1.382;2023-03-14T13:56:29;6.95;;;1.67;;
22060;SDS011;11194;48.092;-1.382;2023-03-14T13:58:56;7.57;;;2.15;;
22060;SDS011;11194;48.092;-1.382;2023-03-14T14:01:24;14.57;;;2.47;;
22060;SDS011;11194;48.092;-1.382;2023-03-14T14:03:51;7.75;;;2.30;;
22060;SDS011;11194;48.092;-1.382;2023-03-14T14:08:46;10.60;;;2.45;;
22060;SDS011;11194;48.092;-1.382;2023-03-14T14:11:18;8.10;;;1.83;;
22060;SDS011;11194;48.092;-1.382;2023-03-14T14:13:45;9.88;;;1.52;;
22060;SDS011;11194;48.092;-1.382;2023-03-14T14:16:12;7.32;;;2.17;;
22060;SDS011;11194;48.092;-1.382;2023-03-14T14:18:38;8.05;;;2.15;;
22060;SDS011;11194;48.092;-1.382;2023-03-14T14:21:04;8.77;;;1.90;;
22060;SDS011;11194;48.092;-1.382;2023-03-14T14:23:31;7.10;;;1.92;;
22060;SDS011;11194;48.092;-1.382;2023-03-14T14:25:58;6.45;;;1.63;;
22060;SDS011;11194;48.092;-1.382;2023-03-14T14:28:26;6.90;;;1.92;;
22060;SDS011;11194;48.092;-1.382;2023-03-14T14:33:53;9.38;;;1.75;;
22060;SDS011;11194;48.092;-1.382;2023-03-14T14:36:21;8.35;;;2.13;;
22060;SDS011;11194;48.092;-1.382;2023-03-14T14:39:30;8.73;;;1.92;;
22060;SDS011;11194;48.092;-1.382;2023-03-14T14:41:39;6.28;;;1.35;;
22060;SDS011;11194;48.092;-1.382;2023-03-14T14:44:05;4.60;;;1.48;;
22060;SDS011;11194;48.092;-1.382;2023-03-14T14:46:32;4.78;;;1.50;;
22060;SDS011;11194;48.092;-1.382;2023-03-14T14:49:02;4.07;;;1.38;;
22060;SDS011;11194;48.092;-1.382;2023-03-14T14:51:33;3.85;;;1.25;;
22060;SDS011;11194;48.092;-1.382;2023-03-14T14:54:04;5.45;;;1.55;;
22060;SDS011;11194;48.092;-1.382;2023-03-14T14:56:35;4.28;;;1.10;;
22060;SDS011;11194;48.092;-1.382;2023-03-14T14:59:02;8.18;;;1.35;;
22060;SDS011;11194;48.092;-1.382;2023-03-14T15:03:59;3.50;;;1.17;;
22060;SDS011;11194;48.092;-1.382;2023-03-14T15:06:28;4.93;;;1.10;;
22060;SDS011;11194;48.092;-1.382;2023-03-14T15:08:56;4.20;;;1.13;;
22060;SDS011;11194;48.092;-1.382;2023-03-14T15:11:24;3.45;;;0.80;;
22060;SDS011;11194;48.092;-1.382;2023-03-14T15:13:51;5.50;;;0.82;;
22060;SDS011;11194;48.092;-1.382;2023-03-14T15:16:18;2.63;;;0.70;;
22060;SDS011;11194;48.092;-1.382;2023-03-14T15:18:47;2.67;;;0.80;;
22060;SDS011;11194;48.092;-1.382;2023-03-14T15:21:15;4.30;;;0.73;;
22060;SDS011;11194;48.092;-1.382;2023-03-14T15:23:41;4.30;;;0.90;;
22060;SDS011;11194;48.092;-1.382;2023-03-14T15:26:15;2.05;;;0.82;;
22060;SDS011;11194;48.092;-1.382;2023-03-14T15:28:41;4.13;;;0.90;;
22060;SDS011;11194;48.092;-1.382;2023-03-14T15:31:08;3.15;;;0.82;;
22060;SDS011;11194;48.092;-1.382;2023-03-14T15:33:35;2.70;;;1.00;;
22060;SDS011;11194;48.092;-1.382;2023-03-14T15:36:01;3.03;;;0.95;;
22060;SDS011;11194;48.092;-1.382;2023-03-14T15:38:27;1.60;;;0.70;;
22060;SDS011;11194;48.092;-1.382;2023-03-14T15:40:53;2.35;;;0.82;;
22060;SDS011;11194;48.092;-1.382;2023-03-14T15:43:19;5.38;;;1.08;;
22060;SDS011;11194;48.092;-1.382;2023-03-14T15:45:45;2.03;;;0.80;;
22060;SDS011;11194;48.092;-1.382;2023-03-14T15:48:12;3.17;;;0.73;;
22060;SDS011;11194;48.092;-1.382;2023-03-14T15:50:40;2.90;;;0.85;;
22060;SDS011;11194;48.092;-1.382;2023-03-14T15:53:06;3.10;;;1.23;;
22060;SDS011;11194;48.092;-1.382;2023-03-14T15:55:32;4.22;;;1.00;;
22060;SDS011;11194;48.092;-1.382;2023-03-14T15:57:58;2.78;;;0.85;;
22060;SDS011;11194;48.092;-1.382;2023-03-14T16:00:26;4.13;;;0.77;;
22060;SDS011;11194;48.092;-1.382;2023-03-14T16:02:53;2.58;;;1.00;;
22060;SDS011;11194;48.092;-1.382;2023-03-14T16:05:19;2.30;;;0.98;;
22060;SDS011;11194;48.092;-1.382;2023-03-14T16:07:45;3.83;;;1.15;;
22060;SDS011;11194;48.092;-1.382;2023-03-14T16:10:12;4.50;;;1.05;;
22060;SDS011;11194;48.092;-1.382;2023-03-14T16:12:38;6.90;;;1.13;;
22060;SDS011;11194;48.092;-1.382;2023-03-14T16:15:05;1.65;;;0.70;;
22060;SDS011;11194;48.092;-1.382;2023-03-14T16:17:31;2.10;;;0.98;;
22060;SDS011;11194;48.092;-1.382;2023-03-14T16:19:57;2.92;;;0.85;;
22060;SDS011;11194;48.092;-1.382;2023-03-14T16:22:23;2.22;;;0.82;;
22060;SDS011;11194;48.092;-1.382;2023-03-14T16:24:49;6.57;;;1.00;;
22060;SDS011;11194;48.092;-1.382;2023-03-14T16:27:15;4.55;;;1.02;;
22060;SDS011;11194;48.092;-1.382;2023-03-14T16:29:41;5.30;;;1.00;;
22060;SDS011;11194;48.092;-1.382;2023-03-14T16:32:08;2.95;;;1.30;;
22060;SDS011;11194;48.092;-1.382;2023-03-14T16:34:37;3.97;;;1.10;;
22060;SDS011;11194;48.092;-1.382;2023-03-14T16:37:04;6.57;;;1.30;;
22060;SDS011;11194;48.092;-1.382;2023-03-14T16:39:30;6.53;;;2.00;;
22060;SDS011;11194;48.092;-1.382;2023-03-14T16:41:57;5.53;;;1.77;;
22060;SDS011;11194;48.092;-1.382;2023-03-14T16:44:28;9.25;;;1.80;;
22060;SDS011;11194;48.092;-1.382;2023-03-14T16:46:55;7.43;;;1.50;;
22060;SDS011;11194;48.092;-1.382;2023-03-14T16:49:21;3.70;;;1.30;;
22060;SDS011;11194;48.092;-1.382;2023-03-14T16:51:47;5.47;;;1.48;;
22060;SDS011;11194;48.092;-1.382;2023-03-14T16:54:16;4.97;;;1.20;;
22060;SDS011;11194;48.092;-1.382;2023-03-14T16:56:46;4.60;;;1.77;;
22060;SDS011;11194;48.092;-1.382;2023-03-14T16:59:13;9.73;;;2.00;;
22060;SDS011;11194;48.092;-1.382;2023-03-14T17:01:45;6.50;;;1.75;;
22060;SDS011;11194;48.092;-1.382;2023-03-14T17:04:14;5.32;;;1.38;;
22060;SDS011;11194;48.092;-1.382;2023-03-14T17:06:40;6.82;;;1.42;;
22060;SDS011;11194;48.092;-1.382;2023-03-14T17:09:12;5.28;;;1.50;;
22060;SDS011;11194;48.092;-1.382;2023-03-14T17:11:47;7.05;;;1.42;;
22060;SDS011;11194;48.092;-1.382;2023-03-14T17:14:13;9.77;;;1.65;;
22060;SDS011;11194;48.092;-1.382;2023-03-14T17:16:39;3.58;;;1.38;;
22060;SDS011;11194;48.092;-1.382;2023-03-14T17:19:05;10.90;;;2.00;;
22060;SDS011;11194;48.092;-1.382;2023-03-14T17:21:31;2.72;;;1.00;;
22060;SDS011;11194;48.092;-1.382;2023-03-14T17:23:57;4.43;;;1.05;;
22060;SDS011;11194;48.092;-1.382;2023-03-14T17:26:23;7.35;;;1.77;;
22060;SDS011;11194;48.092;-1.382;2023-03-14T17:28:50;4.90;;;1.27;;
22060;SDS011;11194;48.092;-1.382;2023-03-14T17:31:21;8.23;;;1.48;;
22060;SDS011;11194;48.092;-1.382;2023-03-14T17:33:48;5.03;;;1.67;;
22060;SDS011;11194;48.092;-1.382;2023-03-14T17:36:25;7.60;;;1.98;;
22060;SDS011;11194;48.092;-1.382;2023-03-14T17:38:54;5.45;;;1.58;;
22060;SDS011;11194;48.092;-1.382;2023-03-14T17:41:28;5.18;;;1.30;;
22060;SDS011;11194;48.092;-1.382;2023-03-14T17:43:54;5.90;;;1.80;;
22060;SDS011;11194;48.092;-1.382;2023-03-14T17:46:21;6.95;;;1.17;;
22060;SDS011;11194;48.092;-1.382;2023-03-14T17:48:47;7.43;;;1.50;;
22060;SDS011;11194;48.092;-1.382;2023-03-14T17:51:14;4.63;;;1.25;;
22060;SDS011;11194;48.092;-1.382;2023-03-14T17:53:40;3.63;;;1.15;;
22060;SDS011;11194;48.092;-1.382;2023-03-14T17:56:06;4.90;;;1.52;;
22060;SDS011;11194;48.092;-1.382;2023-03-14T17:58:33;9.32;;;2.20;;
22060;SDS011;11194;48.092;-1.382;2023-03-14T18:03:37;5.95;;;1.80;;
22060;SDS011;11194;48.092;-1.382;2023-03-14T18:06:04;4.53;;;1.73;;
22060;SDS011;11194;48.092;-1.382;2023-03-14T18:08:30;9.68;;;1.77;;
22060;SDS011;11194;48.092;-1.382;2023-03-14T18:10:56;4.60;;;1.83;;
22060;SDS011;11194;48.092;-1.382;2023-03-14T18:13:22;5.65;;;1.73;;
22060;SDS011;11194;48.092;-1.382;2023-03-14T18:15:48;11.80;;;2.40;;
22060;SDS011;11194;48.092;-1.382;2023-03-14T18:18:16;8.05;;;1.92;;
22060;SDS011;11194;48.092;-1.382;2023-03-14T18:20:47;7.53;;;2.08;;
22060;SDS011;11194;48.092;-1.382;2023-03-14T18:23:13;7.88;;;1.85;;